createdAt,value
2022-11-02T00:00:03.716Z,1.20
2022-11-02T00:02:34.529Z,1.00
2022-11-02T00:05:03.645Z,1.40
2022-11-02T00:07:34.238Z,1.30
2022-11-02T00:10:03.211Z,1.10
2022-11-02T00:12:31.936Z,1.25
2022-11-02T00:15:01.897Z,1.80
2022-11-02T00:17:31.098Z,1.70
2022-11-02T00:20:03.917Z,2.00
2022-11-02T00:22:36.116Z,2.53
2022-11-02T00:25:08.101Z,2.58
2022-11-02T00:27:39.614Z,2.50
2022-11-02T00:30:12.241Z,2.80
2022-11-02T00:32:45.837Z,3.22
2022-11-02T00:35:18.305Z,2.92
2022-11-02T00:37:51.401Z,3.22
2022-11-02T00:40:20.241Z,3.47
2022-11-02T00:42:49.088Z,2.85
2022-11-02T00:45:20.049Z,3.05
2022-11-02T00:47:53.140Z,3.22
2022-11-02T00:50:22.106Z,3.10
2022-11-02T00:52:54.872Z,3.20
2022-11-02T00:55:24.273Z,2.95
2022-11-02T00:57:55.122Z,2.50
2022-11-02T01:00:29.792Z,2.03
2022-11-02T01:03:03.540Z,1.50
2022-11-02T01:05:32.803Z,1.42
2022-11-02T01:08:09.917Z,0.68
2022-11-02T01:10:42.727Z,1.00
2022-11-02T01:13:14.321Z,0.60
2022-11-02T01:15:43.416Z,0.80
2022-11-02T01:18:12.557Z,0.93
2022-11-02T01:20:42.122Z,0.82
2022-11-02T01:23:13.201Z,1.58
2022-11-02T01:25:51.038Z,1.63
2022-11-02T01:28:19.988Z,1.02
2022-11-02T01:30:50.329Z,0.80
2022-11-02T01:33:18.882Z,1.60
2022-11-02T01:35:47.368Z,1.02
2022-11-02T01:38:18.914Z,1.50
2022-11-02T01:40:48.114Z,1.23
2022-11-02T01:43:23.964Z,1.23
2022-11-02T01:46:01.426Z,1.45
2022-11-02T01:48:37.644Z,1.95
2022-11-02T01:51:11.433Z,1.48
2022-11-02T01:53:48.682Z,1.35
2022-11-02T01:59:01.272Z,1.60
2022-11-02T02:01:31.964Z,1.88
2022-11-02T02:04:05.768Z,1.23
2022-11-02T02:06:34.776Z,1.70
2022-11-02T02:09:07.484Z,2.28
2022-11-02T02:11:39.276Z,1.40
2022-11-02T02:14:13.327Z,1.80
2022-11-02T02:17:03.975Z,1.58
2022-11-02T02:19:50.635Z,1.33
2022-11-02T02:22:54.349Z,1.33
2022-11-02T02:26:03.250Z,1.85
2022-11-02T02:28:42.696Z,1.95
2022-11-02T02:31:21.127Z,1.70
2022-11-02T02:33:56.852Z,1.77
2022-11-02T02:36:32.769Z,1.73
2022-11-02T02:39:08.288Z,1.42
2022-11-02T02:41:50.961Z,1.73
2022-11-02T02:44:24.584Z,1.35
2022-11-02T02:46:58.883Z,2.50
2022-11-02T02:52:03.491Z,1.92
2022-11-02T02:54:37.655Z,2.78
2022-11-02T02:57:12.887Z,2.30
2022-11-02T02:59:45.491Z,1.80
2022-11-02T03:02:23.891Z,2.40
2022-11-02T03:04:53.985Z,2.10
2022-11-02T03:07:31.018Z,2.45
2022-11-02T03:10:18.079Z,1.75
2022-11-02T03:12:59.366Z,2.55
2022-11-02T03:15:44.237Z,2.00
2022-11-02T03:18:22.559Z,2.53
2022-11-02T03:21:03.605Z,2.45
2022-11-02T03:23:38.912Z,2.40
2022-11-02T03:26:20.080Z,2.10
2022-11-02T03:29:03.381Z,2.20
2022-11-02T03:31:39.622Z,2.42
2022-11-02T03:34:23.685Z,2.53
2022-11-02T03:37:00.399Z,2.38
2022-11-02T03:39:36.814Z,2.30
2022-11-02T03:42:12.512Z,2.47
2022-11-02T03:44:44.617Z,2.05
2022-11-02T03:47:22.308Z,2.42
2022-11-02T03:49:55.333Z,2.20
2022-11-02T03:52:31.856Z,3.15
2022-11-02T03:55:08.167Z,3.13
2022-11-02T03:57:47.528Z,2.83
2022-11-02T04:00:20.916Z,2.55
2022-11-02T04:02:55.623Z,2.47
2022-11-02T04:05:33.200Z,3.47
2022-11-02T04:08:22.758Z,3.75
2022-11-02T04:11:10.499Z,2.97
2022-11-02T04:13:59.678Z,3.28
2022-11-02T04:16:28.553Z,3.83
2022-11-02T04:19:16.823Z,2.80
2022-11-02T04:22:06.493Z,3.17
2022-11-02T04:24:52.228Z,3.42
2022-11-02T04:27:24.228Z,3.72
2022-11-02T04:29:53.425Z,3.67
2022-11-02T04:32:36.218Z,4.30
2022-11-02T04:35:09.312Z,3.63
2022-11-02T04:37:59.197Z,3.75
2022-11-02T04:40:28.194Z,3.78
2022-11-02T04:42:57.777Z,3.10
2022-11-02T04:45:27.296Z,3.25
2022-11-02T04:48:02.021Z,3.40
2022-11-02T04:50:35.668Z,3.65
2022-11-02T04:53:10.270Z,3.60
2022-11-02T04:55:39.665Z,3.60
2022-11-02T04:58:16.751Z,4.00
2022-11-02T05:00:46.080Z,3.20
2022-11-02T05:03:15.217Z,3.55
2022-11-02T05:05:45.755Z,4.35
2022-11-02T05:08:15.111Z,3.65
2022-11-02T05:10:43.588Z,3.92
2022-11-02T05:13:13.236Z,3.97
2022-11-02T05:15:42.041Z,3.78
2022-11-02T05:18:16.155Z,3.60
2022-11-02T05:20:54.092Z,3.97
2022-11-02T05:23:24.605Z,3.42
2022-11-02T05:26:00.240Z,2.70
2022-11-02T05:28:30.249Z,3.50
2022-11-02T05:31:02.713Z,3.67
2022-11-02T05:33:33.279Z,2.95
2022-11-02T05:36:04.062Z,3.53
2022-11-02T05:38:33.635Z,3.42
2022-11-02T05:41:03.386Z,3.17
2022-11-02T05:43:32.886Z,3.38
2022-11-02T05:46:06.105Z,4.38
2022-11-02T05:48:36.458Z,3.13
2022-11-02T05:51:07.466Z,2.80
2022-11-02T05:53:38.425Z,3.25
2022-11-02T05:56:15.902Z,4.28
2022-11-02T05:58:49.237Z,4.88
2022-11-02T06:01:24.408Z,3.17
2022-11-02T06:03:54.667Z,3.15
2022-11-02T06:06:25.043Z,3.95
2022-11-02T06:08:53.357Z,2.83
2022-11-02T06:11:22.570Z,3.42
2022-11-02T06:13:53.885Z,3.90
2022-11-02T06:16:24.292Z,3.75
2022-11-02T06:18:53.286Z,3.63
2022-11-02T06:21:27.602Z,3.67
2022-11-02T06:23:56.600Z,3.40
2022-11-02T06:26:26.537Z,3.33
2022-11-02T06:28:55.560Z,2.92
2022-11-02T06:31:24.405Z,2.90
2022-11-02T06:33:54.910Z,2.33
2022-11-02T06:36:26.171Z,2.95
2022-11-02T06:38:54.866Z,3.22
2022-11-02T06:41:24.931Z,2.53
2022-11-02T06:43:53.201Z,3.20
2022-11-02T06:46:21.949Z,2.47
2022-11-02T06:48:51.003Z,3.13
2022-11-02T06:51:19.560Z,2.28
2022-11-02T06:53:51.610Z,3.15
2022-11-02T06:56:20.582Z,2.22
2022-11-02T06:58:49.718Z,3.80
2022-11-02T07:01:20.144Z,2.70
2022-11-02T07:03:48.672Z,2.30
2022-11-02T07:06:17.606Z,2.50
2022-11-02T07:08:46.051Z,2.20
2022-11-02T07:11:18.381Z,2.15
2022-11-02T07:13:48.226Z,1.67
2022-11-02T07:16:17.471Z,2.00
2022-11-02T07:18:45.995Z,1.75
2022-11-02T07:21:15.897Z,2.15
2022-11-02T07:23:45.529Z,2.60
2022-11-02T07:26:15.955Z,2.15
2022-11-02T07:28:47.014Z,1.75
2022-11-02T07:31:15.721Z,2.13
2022-11-02T07:33:44.540Z,2.17
2022-11-02T07:36:14.403Z,2.60
2022-11-02T07:38:44.487Z,1.83
2022-11-02T07:41:19.334Z,2.35
2022-11-02T07:43:48.221Z,1.88
2022-11-02T07:46:16.703Z,2.83
2022-11-02T07:48:48.336Z,2.17
2022-11-02T07:51:16.920Z,2.75
2022-11-02T07:53:46.324Z,1.92
2022-11-02T07:56:18.988Z,2.38
2022-11-02T07:58:48.855Z,2.33
2022-11-02T08:01:17.920Z,2.10
2022-11-02T08:03:48.142Z,1.75
2022-11-02T08:06:17.511Z,2.67
2022-11-02T08:08:47.060Z,3.88
2022-11-02T08:11:18.082Z,2.25
2022-11-02T08:13:48.210Z,2.03
2022-11-02T08:16:18.570Z,2.53
2022-11-02T08:18:48.337Z,2.47
2022-11-02T08:21:17.614Z,2.33
2022-11-02T08:23:48.761Z,2.20
2022-11-02T08:26:26.877Z,2.38
2022-11-02T08:28:55.372Z,2.15
2022-11-02T08:31:26.377Z,2.13
2022-11-02T08:33:55.302Z,2.20
2022-11-02T08:36:24.382Z,2.20
2022-11-02T08:38:59.098Z,2.30
2022-11-02T08:41:30.914Z,2.25
2022-11-02T08:44:03.591Z,2.15
2022-11-02T08:46:33.763Z,2.42
2022-11-02T08:49:02.583Z,2.25
2022-11-02T08:51:32.959Z,2.30
2022-11-02T08:54:03.461Z,2.55
2022-11-02T08:56:33.841Z,2.00
2022-11-02T08:59:02.696Z,2.45
2022-11-02T09:01:33.668Z,2.65
2022-11-02T09:04:04.512Z,1.80
2022-11-02T09:06:38.337Z,2.95
2022-11-02T09:09:09.763Z,2.10
2022-11-02T09:11:40.484Z,2.20
2022-11-02T09:14:10.166Z,2.42
2022-11-02T09:16:42.456Z,2.40
2022-11-02T09:19:13.610Z,2.22
2022-11-02T09:21:42.724Z,2.20
2022-11-02T09:24:12.996Z,2.50
2022-11-02T09:26:48.029Z,2.20
2022-11-02T09:29:16.792Z,1.73
2022-11-02T09:31:49.297Z,1.98
2022-11-02T09:34:18.627Z,2.50
2022-11-02T09:36:48.423Z,2.10
2022-11-02T09:39:18.965Z,2.42
2022-11-02T09:45:23.996Z,1.73
2022-11-02T09:51:02.201Z,2.15
2022-11-02T09:53:46.567Z,2.13
2022-11-02T09:59:13.262Z,2.05
2022-11-02T10:02:06.742Z,1.88
2022-11-02T10:05:11.636Z,2.00
2022-11-02T10:08:10.878Z,1.83
2022-11-02T10:10:49.737Z,2.30
2022-11-02T10:13:36.194Z,2.10
2022-11-02T10:16:12.240Z,2.15
2022-11-02T10:19:00.881Z,1.98
2022-11-02T10:21:34.941Z,1.60
2022-11-02T10:24:18.054Z,2.05
2022-11-02T10:26:52.361Z,1.90
2022-11-02T10:29:46.813Z,1.95
2022-11-02T10:32:19.040Z,2.08
2022-11-02T10:34:58.735Z,1.83
2022-11-02T10:37:54.339Z,2.42
2022-11-02T10:40:43.892Z,2.30
2022-11-02T10:43:29.660Z,2.10
2022-11-02T10:48:58.098Z,2.10
2022-11-02T10:51:28.981Z,2.33
2022-11-02T10:54:17.620Z,1.67
2022-11-02T10:56:52.394Z,1.90
2022-11-02T10:59:32.891Z,2.25
2022-11-02T11:02:15.998Z,1.70
2022-11-02T11:04:47.917Z,2.25
2022-11-02T11:07:24.767Z,2.58
2022-11-02T11:09:59.950Z,1.85
2022-11-02T11:12:34.910Z,2.00
2022-11-02T11:20:58.559Z,2.38
2022-11-02T11:23:29.695Z,2.25
2022-11-02T11:26:05.894Z,2.00
2022-11-02T11:28:41.200Z,1.92
2022-11-02T11:33:52.296Z,2.38
2022-11-02T11:36:29.369Z,2.35
2022-11-02T11:39:01.349Z,2.20
2022-11-02T11:41:31.016Z,2.20
2022-11-02T11:44:05.339Z,2.50
2022-11-02T11:46:47.054Z,1.80
2022-11-02T11:50:07.198Z,2.55
2022-11-02T11:52:30.930Z,2.65
2022-11-02T11:55:05.103Z,2.42
2022-11-02T11:57:40.542Z,2.38
2022-11-02T12:00:30.897Z,2.10
2022-11-02T12:03:10.088Z,2.30
2022-11-02T12:05:55.007Z,2.15
2022-11-02T12:09:00.212Z,2.40
2022-11-02T12:12:02.637Z,1.95
2022-11-02T12:14:55.910Z,2.65
2022-11-02T12:17:56.016Z,2.65
2022-11-02T12:21:20.952Z,2.35
2022-11-02T12:24:51.328Z,2.25
2022-11-02T12:30:52.754Z,2.35
2022-11-02T12:34:42.381Z,2.70
2022-11-02T12:37:47.107Z,3.10
2022-11-02T12:49:55.827Z,5.20
2022-11-02T12:52:41.301Z,3.03
2022-11-02T12:58:38.237Z,3.13
2022-11-02T13:01:19.387Z,3.10
2022-11-02T13:04:01.001Z,3.15
2022-11-02T13:06:39.816Z,3.10
2022-11-02T13:09:17.228Z,2.85
2022-11-02T13:11:52.784Z,2.42
2022-11-02T13:14:26.975Z,3.30
2022-11-02T13:17:04.840Z,2.22
2022-11-02T13:20:01.533Z,2.85
2022-11-02T13:25:52.172Z,2.85
2022-11-02T13:28:34.056Z,2.50
2022-11-02T13:34:25.663Z,2.35
2022-11-02T13:43:37.012Z,2.78
2022-11-02T13:46:30.480Z,2.63
2022-11-02T13:49:05.134Z,3.08
2022-11-02T13:51:40.019Z,2.90
2022-11-02T13:54:17.835Z,2.33
2022-11-02T13:56:54.312Z,2.03
2022-11-02T13:59:28.170Z,2.83
2022-11-02T14:02:03.205Z,2.72
2022-11-02T14:04:43.018Z,2.55
2022-11-02T14:07:27.835Z,2.85
2022-11-02T14:10:03.563Z,2.33
2022-11-02T14:12:44.740Z,2.20
2022-11-02T14:15:44.009Z,2.58
2022-11-02T14:18:32.798Z,3.00
2022-11-02T14:21:45.797Z,2.15
2022-11-02T14:25:10.891Z,2.25
2022-11-02T14:27:40.758Z,2.38
2022-11-02T14:30:49.476Z,2.90
2022-11-02T14:33:49.085Z,3.05
2022-11-02T14:36:50.118Z,2.45
2022-11-02T14:39:33.265Z,2.67
2022-11-02T14:42:34.628Z,2.20
2022-11-02T14:45:52.984Z,2.20
2022-11-02T14:48:30.963Z,3.17
2022-11-02T14:54:01.710Z,2.25
2022-11-02T14:56:51.826Z,3.25
2022-11-02T14:59:25.797Z,2.88
2022-11-02T15:02:02.948Z,3.13
2022-11-02T15:04:36.211Z,2.75
2022-11-02T15:07:10.216Z,2.88
2022-11-02T15:10:00.676Z,3.17
2022-11-02T15:12:40.493Z,3.38
2022-11-02T15:15:54.896Z,2.97
2022-11-02T15:18:34.144Z,3.03
2022-11-02T15:21:27.787Z,3.90
2022-11-02T15:24:11.089Z,2.92
2022-11-02T15:26:49.637Z,3.78
2022-11-02T15:29:41.278Z,2.78
2022-11-02T15:32:22.770Z,3.58
2022-11-02T15:34:55.908Z,2.92
2022-11-02T15:37:30.478Z,3.88
2022-11-02T15:40:03.494Z,3.70
2022-11-02T15:42:45.013Z,3.40
2022-11-02T15:45:48.501Z,3.30
2022-11-02T15:48:45.871Z,3.60
2022-11-02T15:51:25.788Z,3.23
2022-11-02T15:54:29.837Z,3.60
2022-11-02T15:57:14.611Z,3.10
2022-11-02T16:00:11.048Z,3.63
2022-11-02T16:02:43.120Z,3.53
2022-11-02T16:05:25.202Z,3.08
2022-11-02T16:08:20.879Z,3.60
2022-11-02T16:10:52.609Z,4.43
2022-11-02T16:13:22.333Z,3.25
2022-11-02T16:15:51.579Z,3.40
2022-11-02T16:18:29.265Z,3.33
2022-11-02T16:21:04.232Z,4.20
2022-11-02T16:23:38.544Z,4.10
2022-11-02T16:26:19.634Z,3.95
2022-11-02T16:28:53.351Z,3.35
2022-11-02T16:31:30.794Z,3.55
2022-11-02T16:34:17.725Z,3.15
2022-11-02T16:36:49.619Z,3.58
2022-11-02T16:39:40.504Z,3.30
2022-11-02T16:42:21.080Z,3.05
2022-11-02T16:44:59.151Z,3.10
2022-11-02T16:50:30.132Z,2.80
2022-11-02T16:53:02.794Z,3.45
2022-11-02T16:55:45.813Z,4.13
2022-11-02T16:58:24.819Z,3.15
2022-11-02T17:01:02.242Z,3.35
2022-11-02T17:03:41.434Z,3.55
2022-11-02T17:06:11.017Z,3.08
2022-11-02T17:08:44.655Z,2.88
2022-11-02T17:11:34.025Z,2.70
2022-11-02T17:14:06.614Z,3.47
2022-11-02T17:16:38.796Z,3.53
2022-11-02T17:19:15.509Z,2.63
2022-11-02T17:21:48.033Z,4.03
2022-11-02T17:24:36.486Z,3.50
2022-11-02T17:30:49.288Z,2.83
2022-11-02T17:39:18.807Z,2.80
2022-11-02T17:42:14.758Z,2.85
2022-11-02T17:47:51.310Z,2.97
2022-11-02T17:50:22.008Z,3.55
2022-11-02T17:55:55.728Z,3.78
2022-11-02T18:01:17.038Z,3.88
2022-11-02T18:03:56.644Z,3.40
2022-11-02T18:06:25.566Z,3.33
2022-11-02T18:09:19.873Z,3.45
2022-11-02T18:11:52.834Z,3.42
2022-11-02T18:14:24.705Z,3.50
2022-11-02T18:16:57.475Z,3.03
2022-11-02T18:19:33.987Z,3.53
2022-11-02T18:22:05.895Z,3.58
2022-11-02T18:24:37.570Z,3.22
2022-11-02T18:30:13.224Z,3.35
2022-11-02T18:32:45.699Z,3.80
2022-11-02T18:35:22.591Z,3.38
2022-11-02T18:38:10.066Z,3.00
2022-11-02T18:40:39.948Z,3.30
2022-11-02T18:43:11.569Z,3.05
2022-11-02T18:45:44.830Z,2.70
2022-11-02T18:48:40.595Z,2.55
2022-11-02T18:51:46.123Z,3.25
2022-11-02T18:54:29.884Z,2.83
2022-11-02T18:57:09.350Z,2.35
2022-11-02T18:59:43.541Z,2.53
2022-11-02T19:02:16.944Z,2.87
2022-11-02T19:07:55.904Z,3.35
2022-11-02T19:10:39.793Z,2.63
2022-11-02T19:19:41.224Z,3.00
2022-11-02T19:22:13.951Z,2.55
2022-11-02T19:24:44.703Z,2.22
2022-11-02T19:27:17.243Z,2.58
2022-11-02T19:29:46.466Z,2.72
2022-11-02T19:32:16.562Z,3.80
2022-11-02T19:34:45.781Z,2.85
2022-11-02T19:37:14.792Z,3.00
2022-11-02T19:39:45.003Z,2.85
2022-11-02T19:42:13.957Z,2.67
2022-11-02T19:44:43.063Z,2.72
2022-11-02T19:47:14.604Z,3.17
2022-11-02T19:49:45.846Z,2.47
2022-11-02T19:52:18.346Z,3.78
2022-11-02T19:54:49.719Z,2.58
2022-11-02T19:57:18.567Z,3.28
2022-11-02T19:59:48.468Z,2.38
2022-11-02T20:02:18.347Z,3.05
2022-11-02T20:04:47.885Z,3.55
2022-11-02T20:07:18.508Z,3.45
2022-11-02T20:09:53.395Z,3.60
2022-11-02T20:14:56.898Z,3.80
2022-11-02T20:17:32.056Z,5.32
2022-11-02T20:20:10.873Z,6.03
2022-11-02T20:25:23.278Z,2.92
2022-11-02T20:27:55.457Z,3.00
2022-11-02T20:30:32.829Z,3.67
2022-11-02T20:33:04.430Z,3.00
2022-11-02T20:35:33.154Z,3.08
2022-11-02T20:38:03.274Z,2.60
2022-11-02T20:40:47.440Z,3.00
2022-11-02T20:43:20.269Z,2.55
2022-11-02T20:45:50.403Z,2.65
2022-11-02T20:48:19.388Z,3.65
2022-11-02T20:50:48.799Z,3.63
2022-11-02T20:56:19.918Z,3.15
2022-11-02T20:58:55.484Z,3.88
2022-11-02T21:01:24.872Z,2.80
2022-11-02T21:04:20.320Z,3.40
2022-11-02T21:06:51.298Z,3.58
2022-11-02T21:09:20.128Z,3.55
2022-11-02T21:12:07.876Z,2.90
2022-11-02T21:14:36.545Z,3.53
2022-11-02T21:17:07.698Z,4.13
2022-11-02T21:19:36.921Z,3.35
2022-11-02T21:22:06.212Z,3.50
2022-11-02T21:24:34.792Z,2.90
2022-11-02T21:27:07.046Z,3.78
2022-11-02T21:29:36.073Z,3.45
2022-11-02T21:32:04.781Z,3.15
2022-11-02T21:34:33.967Z,3.35
2022-11-02T21:37:06.537Z,3.42
2022-11-02T21:39:36.189Z,3.88
2022-11-02T21:42:08.615Z,3.00
2022-11-02T21:44:37.235Z,3.22
2022-11-02T21:47:05.943Z,3.55
2022-11-02T21:49:34.566Z,3.33
2022-11-02T21:52:03.643Z,3.85
2022-11-02T21:54:32.583Z,3.70
2022-11-02T21:57:01.224Z,3.47
2022-11-02T21:59:31.894Z,3.88
2022-11-02T22:02:00.775Z,3.55
2022-11-02T22:04:31.756Z,2.75
2022-11-02T22:07:02.042Z,4.13
2022-11-02T22:09:31.845Z,2.95
2022-11-02T22:12:18.241Z,3.58
2022-11-02T22:14:49.083Z,3.30
2022-11-02T22:17:43.243Z,3.42
2022-11-02T22:20:07.719Z,3.30
2022-11-02T22:22:36.132Z,3.40
2022-11-02T22:25:06.247Z,3.13
2022-11-02T22:27:37.528Z,3.15
2022-11-02T22:30:11.761Z,3.15
2022-11-02T22:32:41.239Z,3.53
2022-11-02T22:35:10.949Z,3.75
2022-11-02T22:37:57.544Z,3.40
2022-11-02T22:40:26.293Z,3.35
2022-11-02T22:42:55.960Z,3.25
2022-11-02T22:45:26.022Z,3.08
2022-11-02T22:47:54.999Z,4.13
2022-11-02T22:50:26.814Z,3.20
2022-11-02T22:52:56.636Z,3.17
2022-11-02T22:55:28.363Z,3.58
2022-11-02T22:57:59.820Z,3.10
2022-11-02T23:00:30.666Z,3.67
2022-11-02T23:03:02.132Z,3.05
2022-11-02T23:05:32.440Z,3.47
2022-11-02T23:08:01.231Z,3.70
2022-11-02T23:10:50.562Z,3.40
2022-11-02T23:13:22.294Z,3.72
2022-11-02T23:16:24.075Z,3.40
2022-11-02T23:19:20.408Z,3.40
2022-11-02T23:22:14.642Z,3.97
2022-11-02T23:25:05.157Z,3.67
2022-11-02T23:27:56.261Z,3.67
2022-11-02T23:30:43.376Z,3.70
2022-11-02T23:33:13.439Z,3.55
2022-11-02T23:35:59.608Z,3.00
2022-11-02T23:38:48.528Z,3.80
2022-11-02T23:41:17.692Z,3.63
2022-11-02T23:43:46.748Z,3.13
2022-11-02T23:46:17.488Z,3.53
2022-11-02T23:48:49.796Z,3.85
2022-11-02T23:54:24.204Z,3.45
2022-11-02T23:56:52.994Z,3.67
2022-11-02T23:59:22.729Z,3.55
